sensor_id;sensor_type;location;lat;lon;timestamp;pressure;altitude;pressure_sealevel;temperature;humidity
74474;BME280;62922;-6.168;106.796;2023-07-24T00:00:54;101158.09;;;31.57;59.87
74474;BME280;62922;-6.168;106.796;2023-07-24T00:03:20;101165.41;;;31.58;59.92
74474;BME280;62922;-6.168;106.796;2023-07-24T00:05:46;101156.09;;;31.58;59.72
74474;BME280;62922;-6.168;106.796;2023-07-24T00:08:15;101153.25;;;31.41;60.33
74474;BME280;62922;-6.168;106.796;2023-07-24T00:10:41;101172.88;;;31.54;59.67
74474;BME280;62922;-6.168;106.796;2023-07-24T00:13:07;101138.25;;;31.32;60.22
74474;BME280;62922;-6.168;106.796;2023-07-24T00:15:34;101136.78;;;31.26;59.96
74474;BME280;62922;-6.168;106.796;2023-07-24T00:18:03;101170.53;;;31.48;59.60
74474;BME280;62922;-6.168;106.796;2023-07-24T00:20:29;101186.63;;;31.56;59.89
74474;BME280;62922;-6.168;106.796;2023-07-24T00:22:55;101186.13;;;31.54;60.33
74474;BME280;62922;-6.168;106.796;2023-07-24T00:25:24;101182.97;;;31.55;60.10
74474;BME280;62922;-6.168;106.796;2023-07-24T00:27:51;101171.69;;;31.47;60.32
74474;BME280;62922;-6.168;106.796;2023-07-24T00:30:17;101185.31;;;31.53;59.70
74474;BME280;62922;-6.168;106.796;2023-07-24T00:32:43;101185.97;;;31.50;59.63
74474;BME280;62922;-6.168;106.796;2023-07-24T00:35:10;101191.59;;;31.50;59.74
74474;BME280;62922;-6.168;106.796;2023-07-24T00:37:38;101154.00;;;31.24;59.70
74474;BME280;62922;-6.168;106.796;2023-07-24T00:40:05;101195.59;;;31.49;60.54
74474;BME280;62922;-6.168;106.796;2023-07-24T00:42:31;101202.56;;;31.52;60.37
74474;BME280;62922;-6.168;106.796;2023-07-24T00:44:57;101163.81;;;31.27;60.98
74474;BME280;62922;-6.168;106.796;2023-07-24T00:47:25;101178.25;;;31.34;60.93
74474;BME280;62922;-6.168;106.796;2023-07-24T00:49:53;101200.56;;;31.44;60.67
74474;BME280;62922;-6.168;106.796;2023-07-24T00:52:20;101224.81;;;31.53;61.34
74474;BME280;62922;-6.168;106.796;2023-07-24T00:54:49;101209.69;;;31.49;60.73
74474;BME280;62922;-6.168;106.796;2023-07-24T00:57:16;101217.00;;;31.50;61.02
74474;BME280;62922;-6.168;106.796;2023-07-24T00:59:43;101192.50;;;31.29;61.10
74474;BME280;62922;-6.168;106.796;2023-07-24T01:02:11;101197.81;;;31.30;61.67
74474;BME280;62922;-6.168;106.796;2023-07-24T01:04:38;101191.16;;;31.26;61.38
74474;BME280;62922;-6.168;106.796;2023-07-24T01:07:05;101241.22;;;31.51;60.81
74474;BME280;62922;-6.168;106.796;2023-07-24T01:09:31;101231.06;;;31.42;61.29
74474;BME280;62922;-6.168;106.796;2023-07-24T01:12:04;101198.31;;;31.24;61.10
74474;BME280;62922;-6.168;106.796;2023-07-24T01:17:07;101244.56;;;31.53;61.10
74474;BME280;62922;-6.168;106.796;2023-07-24T01:19:40;101242.81;;;31.35;61.42
74474;BME280;62922;-6.168;106.796;2023-07-24T01:25:23;101251.84;;;31.46;61.10
74474;BME280;62922;-6.168;106.796;2023-07-24T01:27:53;101238.03;;;31.44;61.27
74474;BME280;62922;-6.168;106.796;2023-07-24T01:30:19;101243.38;;;31.46;61.80
74474;BME280;62922;-6.168;106.796;2023-07-24T01:32:46;101263.97;;;31.55;61.74
74474;BME280;62922;-6.168;106.796;2023-07-24T01:35:12;101260.81;;;31.56;61.37
74474;BME280;62922;-6.168;106.796;2023-07-24T01:37:43;101259.47;;;31.54;61.28
74474;BME280;62922;-6.168;106.796;2023-07-24T01:40:10;101269.13;;;31.53;61.28
74474;BME280;62922;-6.168;106.796;2023-07-24T01:42:37;101237.47;;;31.34;61.13
74474;BME280;62922;-6.168;106.796;2023-07-24T01:45:04;101237.16;;;31.35;60.42
74474;BME280;62922;-6.168;106.796;2023-07-24T01:47:31;101269.97;;;31.53;60.49
74474;BME280;62922;-6.168;106.796;2023-07-24T01:50:00;101266.81;;;31.55;60.48
74474;BME280;62922;-6.168;106.796;2023-07-24T01:52:26;101233.91;;;31.42;60.83
74474;BME280;62922;-6.168;106.796;2023-07-24T01:54:55;101257.81;;;31.53;61.15
74474;BME280;62922;-6.168;106.796;2023-07-24T01:57:21;101231.75;;;31.39;60.92
74474;BME280;62922;-6.168;106.796;2023-07-24T01:59:47;101231.31;;;31.32;60.74
74474;BME280;62922;-6.168;106.796;2023-07-24T02:02:14;101249.88;;;31.55;60.93
74474;BME280;62922;-6.168;106.796;2023-07-24T02:04:40;101263.50;;;31.61;61.76
74474;BME280;62922;-6.168;106.796;2023-07-24T02:07:08;101256.03;;;31.57;61.79
74474;BME280;62922;-6.168;106.796;2023-07-24T02:09:35;101212.25;;;31.29;61.30
74474;BME280;62922;-6.168;106.796;2023-07-24T02:12:01;101251.00;;;31.54;61.07
74474;BME280;62922;-6.168;106.796;2023-07-24T02:14:28;101253.47;;;31.47;61.08
74474;BME280;62922;-6.168;106.796;2023-07-24T02:16:54;101263.81;;;31.60;60.81
74474;BME280;62922;-6.168;106.796;2023-07-24T02:19:23;101258.00;;;31.56;60.58
74474;BME280;62922;-6.168;106.796;2023-07-24T02:21:50;101257.22;;;31.65;61.05
74474;BME280;62922;-6.168;106.796;2023-07-24T02:24:16;101255.34;;;31.60;61.33
74474;BME280;62922;-6.168;106.796;2023-07-24T02:26:42;101253.56;;;31.64;61.87
74474;BME280;62922;-6.168;106.796;2023-07-24T02:29:08;101264.16;;;31.67;61.42
74474;BME280;62922;-6.168;106.796;2023-07-24T02:31:35;101261.00;;;31.69;61.59
74474;BME280;62922;-6.168;106.796;2023-07-24T02:34:01;101256.53;;;31.68;61.12
74474;BME280;62922;-6.168;106.796;2023-07-24T02:36:27;101265.84;;;31.68;61.33
74474;BME280;62922;-6.168;106.796;2023-07-24T02:38:56;101222.78;;;31.45;61.56
74474;BME280;62922;-6.168;106.796;2023-07-24T02:41:22;101198.16;;;31.29;60.61
74474;BME280;62922;-6.168;106.796;2023-07-24T02:43:48;101240.91;;;31.53;60.10
74474;BME280;62922;-6.168;106.796;2023-07-24T02:46:15;101259.03;;;31.69;60.89
74474;BME280;62922;-6.168;106.796;2023-07-24T02:48:41;101255.88;;;31.71;60.78
74474;BME280;62922;-6.168;106.796;2023-07-24T02:51:07;101257.56;;;31.72;60.54
74474;BME280;62922;-6.168;106.796;2023-07-24T02:53:34;101248.59;;;31.70;61.12
74474;BME280;62922;-6.168;106.796;2023-07-24T02:56:01;101212.84;;;31.48;61.00
74474;BME280;62922;-6.168;106.796;2023-07-24T02:58:28;101196.91;;;31.43;60.65
74474;BME280;62922;-6.168;106.796;2023-07-24T03:01:02;101214.84;;;31.56;60.98
74474;BME280;62922;-6.168;106.796;2023-07-24T03:03:30;101235.94;;;31.67;60.60
74474;BME280;62922;-6.168;106.796;2023-07-24T03:05:56;101161.66;;;31.24;60.79
74474;BME280;62922;-6.168;106.796;2023-07-24T03:08:22;101208.69;;;31.54;60.22
74474;BME280;62922;-6.168;106.796;2023-07-24T03:10:48;101239.28;;;31.69;60.87
74474;BME280;62922;-6.168;106.796;2023-07-24T03:13:15;101207.56;;;31.55;60.51
74474;BME280;62922;-6.168;106.796;2023-07-24T03:15:41;101233.97;;;31.68;61.07
74474;BME280;62922;-6.168;106.796;2023-07-24T03:18:07;101235.16;;;31.75;60.32
74474;BME280;62922;-6.168;106.796;2023-07-24T03:20:34;101222.34;;;31.69;60.78
74474;BME280;62922;-6.168;106.796;2023-07-24T03:23:00;101210.38;;;31.63;60.48
74474;BME280;62922;-6.168;106.796;2023-07-24T03:25:26;101232.16;;;31.80;60.70
74474;BME280;62922;-6.168;106.796;2023-07-24T03:27:53;101215.56;;;31.79;60.48
74474;BME280;62922;-6.168;106.796;2023-07-24T03:30:21;101226.69;;;31.84;60.16
74474;BME280;62922;-6.168;106.796;2023-07-24T03:32:50;101197.97;;;31.73;60.72
74474;BME280;62922;-6.168;106.796;2023-07-24T03:35:17;101206.94;;;31.84;60.25
74474;BME280;62922;-6.168;106.796;2023-07-24T03:37:43;101199.31;;;31.84;60.56
74474;BME280;62922;-6.168;106.796;2023-07-24T03:40:10;101200.44;;;31.83;60.32
74474;BME280;62922;-6.168;106.796;2023-07-24T03:42:36;101137.00;;;31.46;60.51
74474;BME280;62922;-6.168;106.796;2023-07-24T03:45:03;101207.81;;;31.93;60.70
74474;BME280;62922;-6.168;106.796;2023-07-24T03:47:29;101191.84;;;31.88;60.10
74474;BME280;62922;-6.168;106.796;2023-07-24T03:49:55;101198.69;;;31.96;60.54
74474;BME280;62922;-6.168;106.796;2023-07-24T03:52:24;101197.19;;;31.98;60.15
74474;BME280;62922;-6.168;106.796;2023-07-24T03:54:51;101141.03;;;31.71;59.96
74474;BME280;62922;-6.168;106.796;2023-07-24T03:57:18;101183.91;;;31.99;60.33
74474;BME280;62922;-6.168;106.796;2023-07-24T03:59:45;101143.03;;;31.79;59.96
74474;BME280;62922;-6.168;106.796;2023-07-24T04:02:11;101150.66;;;31.87;60.02
74474;BME280;62922;-6.168;106.796;2023-07-24T04:04:38;101159.00;;;32.01;59.93
74474;BME280;62922;-6.168;106.796;2023-07-24T04:07:04;101171.31;;;32.05;60.33
74474;BME280;62922;-6.168;106.796;2023-07-24T04:09:31;101163.28;;;32.07;60.01
74474;BME280;62922;-6.168;106.796;2023-07-24T04:11:57;101157.66;;;32.07;59.95
74474;BME280;62922;-6.168;106.796;2023-07-24T04:14:24;101150.19;;;32.02;60.27
74474;BME280;62922;-6.168;106.796;2023-07-24T04:16:50;101116.19;;;31.90;59.74
74474;BME280;62922;-6.168;106.796;2023-07-24T04:19:16;101144.53;;;32.11;59.67
74474;BME280;62922;-6.168;106.796;2023-07-24T04:21:43;101120.78;;;32.03;59.98
74474;BME280;62922;-6.168;106.796;2023-07-24T04:24:09;101132.91;;;32.12;59.39
74474;BME280;62922;-6.168;106.796;2023-07-24T04:26:40;101140.22;;;32.13;59.93
74474;BME280;62922;-6.168;106.796;2023-07-24T04:29:08;101129.41;;;32.07;59.49
74474;BME280;62922;-6.168;106.796;2023-07-24T04:31:34;101120.63;;;32.00;59.61
74474;BME280;62922;-6.168;106.796;2023-07-24T04:34:00;101134.91;;;32.12;59.32
74474;BME280;62922;-6.168;106.796;2023-07-24T04:36:27;101134.25;;;32.15;59.62
74474;BME280;62922;-6.168;106.796;2023-07-24T04:38:53;101078.78;;;31.85;59.42
74474;BME280;62922;-6.168;106.796;2023-07-24T04:41:19;101108.50;;;32.08;59.52
74474;BME280;62922;-6.168;106.796;2023-07-24T04:43:45;101119.63;;;32.13;59.11
74474;BME280;62922;-6.168;106.796;2023-07-24T04:46:12;101121.59;;;32.12;59.59
74474;BME280;62922;-6.168;106.796;2023-07-24T04:48:38;101108.34;;;32.04;59.68
74474;BME280;62922;-6.168;106.796;2023-07-24T04:51:06;101108.00;;;32.06;60.28
74474;BME280;62922;-6.168;106.796;2023-07-24T04:53:35;101094.56;;;31.94;60.65
74474;BME280;62922;-6.168;106.796;2023-07-24T04:56:01;101074.66;;;31.91;60.98
74474;BME280;62922;-6.168;106.796;2023-07-24T04:58:27;101041.78;;;31.69;61.82
74474;BME280;62922;-6.168;106.796;2023-07-24T05:00:57;101106.03;;;32.06;61.69
74474;BME280;62922;-6.168;106.796;2023-07-24T05:03:23;101092.06;;;32.01;61.72
74474;BME280;62922;-6.168;106.796;2023-07-24T05:05:54;101102.38;;;32.06;62.34
74474;BME280;62922;-6.168;106.796;2023-07-24T05:08:22;101095.38;;;32.03;62.54
74474;BME280;62922;-6.168;106.796;2023-07-24T05:10:54;101098.53;;;32.02;62.54
74474;BME280;62922;-6.168;106.796;2023-07-24T05:13:21;101092.56;;;32.03;62.28
74474;BME280;62922;-6.168;106.796;2023-07-24T05:15:47;101047.91;;;31.80;62.76
74474;BME280;62922;-6.168;106.796;2023-07-24T05:18:16;101051.91;;;31.79;63.15
74474;BME280;62922;-6.168;106.796;2023-07-24T05:20:47;101048.56;;;31.85;63.05
74474;BME280;62922;-6.168;106.796;2023-07-24T05:23:14;101038.13;;;31.77;63.30
74474;BME280;62922;-6.168;106.796;2023-07-24T05:25:41;101055.03;;;31.94;63.47
74474;BME280;62922;-6.168;106.796;2023-07-24T05:28:07;101009.91;;;31.69;63.31
74474;BME280;62922;-6.168;106.796;2023-07-24T05:30:33;101050.91;;;31.92;62.63
74474;BME280;62922;-6.168;106.796;2023-07-24T05:33:00;101057.22;;;31.97;62.71
74474;BME280;62922;-6.168;106.796;2023-07-24T05:35:26;101050.09;;;31.91;63.35
74474;BME280;62922;-6.168;106.796;2023-07-24T05:37:53;101032.97;;;31.79;62.79
74474;BME280;62922;-6.168;106.796;2023-07-24T05:40:19;101051.03;;;31.87;63.06
74474;BME280;62922;-6.168;106.796;2023-07-24T05:42:46;101056.22;;;31.93;63.23
74474;BME280;62922;-6.168;106.796;2023-07-24T05:45:13;101042.78;;;31.90;63.18
74474;BME280;62922;-6.168;106.796;2023-07-24T05:47:42;101002.94;;;31.66;63.24
74474;BME280;62922;-6.168;106.796;2023-07-24T05:50:08;101041.94;;;31.90;63.06
74474;BME280;62922;-6.168;106.796;2023-07-24T05:52:35;101037.94;;;31.91;63.00
74474;BME280;62922;-6.168;106.796;2023-07-24T05:55:01;101005.94;;;31.70;62.63
74474;BME280;62922;-6.168;106.796;2023-07-24T05:57:28;100994.00;;;31.64;62.96
74474;BME280;62922;-6.168;106.796;2023-07-24T05:59:55;101032.66;;;31.89;62.31
74474;BME280;62922;-6.168;106.796;2023-07-24T06:02:21;101042.25;;;31.88;62.63
74474;BME280;62922;-6.168;106.796;2023-07-24T06:04:48;101043.06;;;31.89;62.63
74474;BME280;62922;-6.168;106.796;2023-07-24T06:07:14;101036.91;;;31.87;62.40
74474;BME280;62922;-6.168;106.796;2023-07-24T06:09:40;101015.38;;;31.74;62.87
74474;BME280;62922;-6.168;106.796;2023-07-24T06:12:07;101032.47;;;31.86;62.53
74474;BME280;62922;-6.168;106.796;2023-07-24T06:14:33;100968.78;;;31.42;62.19
74474;BME280;62922;-6.168;106.796;2023-07-24T06:16:59;101045.41;;;31.87;62.83
74474;BME280;62922;-6.168;106.796;2023-07-24T06:19:29;100995.97;;;31.63;63.39
74474;BME280;62922;-6.168;106.796;2023-07-24T06:21:55;101027.50;;;31.83;63.56
74474;BME280;62922;-6.168;106.796;2023-07-24T06:24:21;100979.56;;;31.57;62.96
74474;BME280;62922;-6.168;106.796;2023-07-24T06:26:50;101025.97;;;31.85;62.41
74474;BME280;62922;-6.168;106.796;2023-07-24T06:29:16;101012.69;;;31.86;63.33
74474;BME280;62922;-6.168;106.796;2023-07-24T06:31:42;100990.81;;;31.83;63.03
74474;BME280;62922;-6.168;106.796;2023-07-24T06:34:09;100980.16;;;31.88;62.86
74474;BME280;62922;-6.168;106.796;2023-07-24T06:36:35;100994.28;;;31.88;62.58
74474;BME280;62922;-6.168;106.796;2023-07-24T06:39:01;100976.19;;;31.81;62.70
74474;BME280;62922;-6.168;106.796;2023-07-24T06:41:30;100996.59;;;31.95;63.26
74474;BME280;62922;-6.168;106.796;2023-07-24T06:43:56;100996.59;;;31.95;62.72
74474;BME280;62922;-6.168;106.796;2023-07-24T06:46:23;100996.59;;;31.95;63.33
74474;BME280;62922;-6.168;106.796;2023-07-24T06:48:49;100992.78;;;31.91;62.92
74474;BME280;62922;-6.168;106.796;2023-07-24T06:51:18;100983.00;;;31.88;62.72
74474;BME280;62922;-6.168;106.796;2023-07-24T06:53:49;100981.84;;;31.89;63.16
74474;BME280;62922;-6.168;106.796;2023-07-24T06:56:18;100968.53;;;31.81;62.49
74474;BME280;62922;-6.168;106.796;2023-07-24T06:58:44;100975.03;;;31.82;63.37
74474;BME280;62922;-6.168;106.796;2023-07-24T07:01:11;100934.94;;;31.59;63.28
74474;BME280;62922;-6.168;106.796;2023-07-24T07:03:37;100975.50;;;31.84;63.43
74474;BME280;62922;-6.168;106.796;2023-07-24T07:06:06;100969.88;;;31.84;63.36
74474;BME280;62922;-6.168;106.796;2023-07-24T07:08:35;100967.56;;;31.77;63.10
74474;BME280;62922;-6.168;106.796;2023-07-24T07:11:01;100944.69;;;31.61;62.90
74474;BME280;62922;-6.168;106.796;2023-07-24T07:13:28;100983.53;;;31.90;63.40
74474;BME280;62922;-6.168;106.796;2023-07-24T07:15:54;100958.63;;;31.75;63.35
74474;BME280;62922;-6.168;106.796;2023-07-24T07:18:20;100960.91;;;31.82;63.75
74474;BME280;62922;-6.168;106.796;2023-07-24T07:20:47;100978.84;;;31.86;63.01
74474;BME280;62922;-6.168;106.796;2023-07-24T07:23:17;100985.50;;;31.90;63.32
74474;BME280;62922;-6.168;106.796;2023-07-24T07:25:44;100978.69;;;31.91;62.81
74474;BME280;62922;-6.168;106.796;2023-07-24T07:28:13;100966.22;;;31.83;62.75
74474;BME280;62922;-6.168;106.796;2023-07-24T07:30:41;100970.22;;;31.91;63.33
74474;BME280;62922;-6.168;106.796;2023-07-24T07:33:07;100942.69;;;31.71;62.60
74474;BME280;62922;-6.168;106.796;2023-07-24T07:35:34;100925.59;;;31.67;62.76
74474;BME280;62922;-6.168;106.796;2023-07-24T07:38:02;100968.38;;;31.86;62.29
74474;BME280;62922;-6.168;106.796;2023-07-24T07:40:28;100969.19;;;31.87;62.29
74474;BME280;62922;-6.168;106.796;2023-07-24T07:42:55;100971.69;;;31.88;62.37
74474;BME280;62922;-6.168;106.796;2023-07-24T07:45:24;100932.75;;;31.65;62.71
74474;BME280;62922;-6.168;106.796;2023-07-24T07:47:50;100924.94;;;31.61;62.10
74474;BME280;62922;-6.168;106.796;2023-07-24T07:50:18;100946.66;;;31.78;61.84
74474;BME280;62922;-6.168;106.796;2023-07-24T07:52:45;100956.25;;;31.86;62.37
74474;BME280;62922;-6.168;106.796;2023-07-24T07:55:12;100952.94;;;31.84;61.84
74474;BME280;62922;-6.168;106.796;2023-07-24T07:57:41;100917.66;;;31.60;61.67
74474;BME280;62922;-6.168;106.796;2023-07-24T08:00:08;100953.78;;;31.84;61.91
74474;BME280;62922;-6.168;106.796;2023-07-24T08:02:34;100949.63;;;31.82;62.20
74474;BME280;62922;-6.168;106.796;2023-07-24T08:05:01;100949.28;;;31.83;61.38
74474;BME280;62922;-6.168;106.796;2023-07-24T08:07:30;100957.75;;;31.83;61.38
74474;BME280;62922;-6.168;106.796;2023-07-24T08:09:57;100927.38;;;31.80;61.83
74474;BME280;62922;-6.168;106.796;2023-07-24T08:12:23;100923.06;;;31.83;61.16
74474;BME280;62922;-6.168;106.796;2023-07-24T08:14:52;100904.00;;;31.71;61.07
74474;BME280;62922;-6.168;106.796;2023-07-24T08:17:18;100920.09;;;31.71;60.51
74474;BME280;62922;-6.168;106.796;2023-07-24T08:19:48;100919.78;;;31.63;60.38
74474;BME280;62922;-6.168;106.796;2023-07-24T08:22:14;100870.06;;;31.33;59.22
74474;BME280;62922;-6.168;106.796;2023-07-24T08:24:41;100904.88;;;31.54;59.66
74474;BME280;62922;-6.168;106.796;2023-07-24T08:27:07;100881.69;;;31.40;59.15
74474;BME280;62922;-6.168;106.796;2023-07-24T08:29:33;100914.84;;;31.60;59.25
74474;BME280;62922;-6.168;106.796;2023-07-24T08:32:01;100888.63;;;31.43;58.87
74474;BME280;62922;-6.168;106.796;2023-07-24T08:34:28;100901.41;;;31.49;59.22
74474;BME280;62922;-6.168;106.796;2023-07-24T08:36:54;100907.53;;;31.51;58.37
74474;BME280;62922;-6.168;106.796;2023-07-24T08:39:21;100903.53;;;31.52;58.21
74474;BME280;62922;-6.168;106.796;2023-07-24T08:41:47;100940.84;;;31.75;58.45
74474;BME280;62922;-6.168;106.796;2023-07-24T08:44:16;100915.00;;;31.55;58.08
74474;BME280;62922;-6.168;106.796;2023-07-24T08:46:43;100942.03;;;31.74;58.08
74474;BME280;62922;-6.168;106.796;2023-07-24T08:49:12;100943.66;;;31.75;58.08
74474;BME280;62922;-6.168;106.796;2023-07-24T08:51:41;100960.59;;;31.75;58.54
74474;BME280;62922;-6.168;106.796;2023-07-24T08:54:08;100933.09;;;31.54;58.41
74474;BME280;62922;-6.168;106.796;2023-07-24T08:56:37;100929.94;;;31.56;58.10
74474;BME280;62922;-6.168;106.796;2023-07-24T08:59:07;100953.63;;;31.72;58.60
74474;BME280;62922;-6.168;106.796;2023-07-24T09:01:33;100958.78;;;31.70;58.59
74474;BME280;62922;-6.168;106.796;2023-07-24T09:04:00;100935.91;;;31.54;58.18
74474;BME280;62922;-6.168;106.796;2023-07-24T09:06:26;100954.66;;;31.68;59.07
74474;BME280;62922;-6.168;106.796;2023-07-24T09:08:54;100945.31;;;31.76;59.15
74474;BME280;62922;-6.168;106.796;2023-07-24T09:11:20;100923.47;;;31.64;59.64
74474;BME280;62922;-6.168;106.796;2023-07-24T09:13:47;100948.81;;;31.73;59.24
74474;BME280;62922;-6.168;106.796;2023-07-24T09:16:24;100947.00;;;31.59;58.62
74474;BME280;62922;-6.168;106.796;2023-07-24T09:18:51;100921.97;;;31.58;58.40
74474;BME280;62922;-6.168;106.796;2023-07-24T09:21:29;100960.91;;;31.82;58.51
74474;BME280;62922;-6.168;106.796;2023-07-24T09:23:56;100947.81;;;31.77;58.35
74474;BME280;62922;-6.168;106.796;2023-07-24T09:26:23;100952.28;;;31.78;59.03
74474;BME280;62922;-6.168;106.796;2023-07-24T09:28:53;100929.94;;;31.65;59.12
74474;BME280;62922;-6.168;106.796;2023-07-24T09:31:20;100955.09;;;31.78;58.95
74474;BME280;62922;-6.168;106.796;2023-07-24T09:33:46;100967.06;;;31.84;59.10
74474;BME280;62922;-6.168;106.796;2023-07-24T09:36:12;100946.03;;;31.64;58.71
74474;BME280;62922;-6.168;106.796;2023-07-24T09:38:40;100959.09;;;31.77;58.89
74474;BME280;62922;-6.168;106.796;2023-07-24T09:41:07;100906.06;;;31.45;59.51
74474;BME280;62922;-6.168;106.796;2023-07-24T09:43:34;100962.75;;;31.78;59.59
74474;BME280;62922;-6.168;106.796;2023-07-24T09:46:04;100974.69;;;31.83;59.04
74474;BME280;62922;-6.168;106.796;2023-07-24T09:48:32;100973.38;;;31.81;59.67
74474;BME280;62922;-6.168;106.796;2023-07-24T09:51:00;100924.31;;;31.47;59.21
74474;BME280;62922;-6.168;106.796;2023-07-24T09:56:03;100972.19;;;31.82;59.52
74474;BME280;62922;-6.168;106.796;2023-07-24T09:58:33;100973.03;;;31.82;60.22
74474;BME280;62922;-6.168;106.796;2023-07-24T10:01:05;100969.03;;;31.83;60.06
74474;BME280;62922;-6.168;106.796;2023-07-24T10:03:34;100973.72;;;31.79;60.44
74474;BME280;62922;-6.168;106.796;2023-07-24T10:06:04;100979.53;;;31.83;60.60
74474;BME280;62922;-6.168;106.796;2023-07-24T10:08:31;100962.25;;;31.76;60.82
74474;BME280;62922;-6.168;106.796;2023-07-24T10:10:59;100975.84;;;31.82;60.84
74474;BME280;62922;-6.168;106.796;2023-07-24T10:13:27;100977.69;;;31.78;60.53
74474;BME280;62922;-6.168;106.796;2023-07-24T10:15:53;100978.53;;;31.79;61.14
74474;BME280;62922;-6.168;106.796;2023-07-24T10:18:27;100989.47;;;31.80;60.88
74474;BME280;62922;-6.168;106.796;2023-07-24T10:21:15;100978.53;;;31.70;61.27
74474;BME280;62922;-6.168;106.796;2023-07-24T10:23:44;100998.78;;;31.81;61.02
74474;BME280;62922;-6.168;106.796;2023-07-24T10:26:12;100975.69;;;31.70;60.98
74474;BME280;62922;-6.168;106.796;2023-07-24T10:28:41;100990.66;;;31.79;61.26
74474;BME280;62922;-6.168;106.796;2023-07-24T10:31:19;100978.69;;;31.65;61.26
74474;BME280;62922;-6.168;106.796;2023-07-24T10:33:46;100994.63;;;31.78;61.94
74474;BME280;62922;-6.168;106.796;2023-07-24T10:36:17;101007.59;;;31.79;62.37
74474;BME280;62922;-6.168;106.796;2023-07-24T10:38:45;100964.13;;;31.54;62.65
74474;BME280;62922;-6.168;106.796;2023-07-24T10:41:12;101007.88;;;31.78;62.57
74474;BME280;62922;-6.168;106.796;2023-07-24T10:43:45;100969.25;;;31.52;62.97
74474;BME280;62922;-6.168;106.796;2023-07-24T10:46:12;101000.44;;;31.73;62.67
74474;BME280;62922;-6.168;106.796;2023-07-24T10:48:43;101018.88;;;31.79;63.11
74474;BME280;62922;-6.168;106.796;2023-07-24T10:51:10;100999.13;;;31.62;63.10
74474;BME280;62922;-6.168;106.796;2023-07-24T10:53:37;101024.84;;;31.69;63.32
74474;BME280;62922;-6.168;106.796;2023-07-24T10:56:04;101002.44;;;31.55;63.37
74474;BME280;62922;-6.168;106.796;2023-07-24T10:58:32;101018.53;;;31.72;63.09
74474;BME280;62922;-6.168;106.796;2023-07-24T11:01:04;101014.06;;;31.63;62.75
74474;BME280;62922;-6.168;106.796;2023-07-24T11:03:30;101034.31;;;31.73;63.33
74474;BME280;62922;-6.168;106.796;2023-07-24T11:05:58;101021.03;;;31.65;63.33
74474;BME280;62922;-6.168;106.796;2023-07-24T11:08:24;101033.47;;;31.73;63.03
74474;BME280;62922;-6.168;106.796;2023-07-24T11:10:53;101009.56;;;31.61;63.35
74474;BME280;62922;-6.168;106.796;2023-07-24T11:13:23;101026.19;;;31.72;63.53
74474;BME280;62922;-6.168;106.796;2023-07-24T11:15:50;101023.84;;;31.74;62.58
74474;BME280;62922;-6.168;106.796;2023-07-24T11:18:19;101038.78;;;31.74;63.21
74474;BME280;62922;-6.168;106.796;2023-07-24T11:20:55;100994.00;;;31.47;63.68
74474;BME280;62922;-6.168;106.796;2023-07-24T11:23:23;101042.94;;;31.77;63.34
74474;BME280;62922;-6.168;106.796;2023-07-24T11:25:54;101024.03;;;31.60;63.79
74474;BME280;62922;-6.168;106.796;2023-07-24T11:28:20;101043.28;;;31.75;63.50
74474;BME280;62922;-6.168;106.796;2023-07-24T11:30:49;101052.88;;;31.74;62.89
74474;BME280;62922;-6.168;106.796;2023-07-24T11:33:17;101053.72;;;31.75;63.00
74474;BME280;62922;-6.168;106.796;2023-07-24T11:35:44;101028.16;;;31.54;63.47
74474;BME280;62922;-6.168;106.796;2023-07-24T11:38:10;101050.06;;;31.74;62.88
74474;BME280;62922;-6.168;106.796;2023-07-24T11:40:41;101052.06;;;31.74;63.15
74474;BME280;62922;-6.168;106.796;2023-07-24T11:43:19;101060.69;;;31.77;62.87
74474;BME280;62922;-6.168;106.796;2023-07-24T11:45:46;101073.28;;;31.80;63.32
74474;BME280;62922;-6.168;106.796;2023-07-24T11:48:14;101038.97;;;31.60;62.25
74474;BME280;62922;-6.168;106.796;2023-07-24T11:50:47;101037.31;;;31.51;62.45
74474;BME280;62922;-6.168;106.796;2023-07-24T11:53:26;101069.66;;;31.71;62.11
74474;BME280;62922;-6.168;106.796;2023-07-24T11:55:55;101074.66;;;31.74;63.01
74474;BME280;62922;-6.168;106.796;2023-07-24T11:58:25;101076.28;;;31.75;62.77
74474;BME280;62922;-6.168;106.796;2023-07-24T12:00:51;101074.94;;;31.72;63.04
74474;BME280;62922;-6.168;106.796;2023-07-24T12:03:21;101048.59;;;31.51;62.74
74474;BME280;62922;-6.168;106.796;2023-07-24T12:05:48;101048.91;;;31.49;62.93
74474;BME280;62922;-6.168;106.796;2023-07-24T12:08:14;101089.56;;;31.74;62.35
74474;BME280;62922;-6.168;106.796;2023-07-24T12:10:42;101077.78;;;31.63;62.67
74474;BME280;62922;-6.168;106.796;2023-07-24T12:13:09;101082.75;;;31.67;61.94
74474;BME280;62922;-6.168;106.796;2023-07-24T12:15:35;101082.44;;;31.68;62.21
74474;BME280;62922;-6.168;106.796;2023-07-24T12:18:04;101083.59;;;31.67;61.52
74474;BME280;62922;-6.168;106.796;2023-07-24T12:20:31;101090.75;;;31.65;61.45
74474;BME280;62922;-6.168;106.796;2023-07-24T12:22:58;101102.66;;;31.70;61.72
74474;BME280;62922;-6.168;106.796;2023-07-24T12:25:24;101105.31;;;31.67;62.01
74474;BME280;62922;-6.168;106.796;2023-07-24T12:27:50;101110.66;;;31.68;61.78
74474;BME280;62922;-6.168;106.796;2023-07-24T12:30:17;101106.16;;;31.67;61.72
74474;BME280;62922;-6.168;106.796;2023-07-24T12:32:44;101082.59;;;31.46;62.06
74474;BME280;62922;-6.168;106.796;2023-07-24T12:35:11;101121.44;;;31.66;61.72
74474;BME280;62922;-6.168;106.796;2023-07-24T12:37:37;101121.44;;;31.66;62.33
74474;BME280;62922;-6.168;106.796;2023-07-24T12:40:05;101089.72;;;31.43;62.59